Time,TemperatureF,DewpointF,PressureIn,WindDirection,WindDirectionDegrees,WindSpeedMPH,WindSpeedGustMPH,Humidity,HourlyPrecipIn,Conditions,Clouds,dailyrainin,SolarRadiationWatts/m^2,SoftwareType,DateUTC
2013-04-02 00:00:00,38.5,19.0,29.83,NW,308,8.0,19.0,45,0.00,,---,0.20,0.00,VWS V14.01,2013-04-02 04:00:00,
2013-04-02 00:05:00,38.3,18.8,29.83,WNW,290,10.0,15.0,45,0.00,,---,0.00,0.00,VWS V14.01,2013-04-02 04:05:00,
2013-04-02 00:10:00,37.9,16.9,29.83,NW,310,10.0,16.0,42,0.00,,---,0.00,0.00,VWS V14.01,2013-04-02 04:10:00,
2013-04-02 00:15:00,37.6,16.6,29.83,WNW,296,11.0,16.0,42,0.00,,---,0.00,0.00,VWS V14.01,2013-04-02 04:15:00,
2013-04-02 00:20:00,37.3,16.3,29.84,WNW,300,9.0,17.0,42,0.00,,---,0.00,0.00,VWS V14.01,2013-04-02 04:20:00,
2013-04-02 00:25:00,37.2,16.2,29.84,NW,317,12.0,17.0,42,0.00,,---,0.00,0.00,VWS V14.01,2013-04-02 04:25:00,
2013-04-02 00:30:00,37.1,16.1,29.84,NW,319,11.0,17.0,42,0.00,,---,0.00,0.00,VWS V14.01,2013-04-02 04:30:00,
2013-04-02 00:35:00,36.9,16.5,29.84,NW,311,9.0,13.0,43,0.00,,---,0.00,0.00,VWS V14.01,2013-04-02 04:35:00,
2013-04-02 00:40:00,36.7,16.3,29.85,NW,308,10.0,13.0,43,0.00,,---,0.00,0.00,VWS V14.01,2013-04-02 04:40:00,
2013-04-02 00:45:00,36.6,16.8,29.85,WNW,297,7.0,13.0,44,0.00,,---,0.00,0.00,VWS V14.01,2013-04-02 04:45:00,
2013-04-02 00:50:00,36.6,18.3,29.85,WNW,294,8.0,11.0,47,0.00,,---,0.00,0.00,VWS V14.01,2013-04-02 04:50:00,
2013-04-02 00:55:00,36.8,18.5,29.85,WNW,286,10.0,14.0,47,0.00,,---,0.00,0.00,VWS V14.01,2013-04-02 04:55:00,
2013-04-02 01:00:00,36.8,18.0,29.85,NW,319,8.0,16.0,46,0.00,,---,0.00,0.00,VWS V14.01,2013-04-02 05:00:00,
2013-04-02 01:05:00,36.6,19.7,29.86,West,273,8.0,17.0,50,0.00,,---,0.00,0.00,VWS V14.01,2013-04-02 05:05:00,
2013-04-02 01:10:00,36.5,18.7,29.86,NW,304,10.0,17.0,48,0.00,,---,0.00,0.00,VWS V14.01,2013-04-02 05:10:00,
2013-04-02 01:15:00,36.4,19.1,29.86,WNW,292,8.0,17.0,49,0.00,,---,0.00,0.00,VWS V14.01,2013-04-02 05:15:00,
2013-04-02 01:20:00,36.3,18.0,29.86,West,274,14.0,17.0,47,0.00,,---,0.00,0.00,VWS V14.01,2013-04-02 05:20:00,
2013-04-02 01:25:00,36.5,19.2,29.86,West,277,9.0,20.0,49,0.00,,---,0.00,0.00,VWS V14.01,2013-04-02 05:25:00,
2013-04-02 01:30:00,36.6,20.2,29.86,NW,321,17.0,20.0,51,0.00,,---,0.00,0.00,VWS V14.01,2013-04-02 05:30:00,
2013-04-02 01:35:00,36.5,18.7,29.86,WNW,300,14.0,19.0,48,0.00,,---,0.00,0.00,VWS V14.01,2013-04-02 05:35:00,
2013-04-02 01:40:00,36.6,21.5,29.87,WNW,290,15.0,19.0,54,0.00,,---,0.00,0.00,VWS V14.01,2013-04-02 05:40:00,
2013-04-02 01:45:00,36.5,20.6,29.87,NW,305,19.0,19.0,52,0.00,,---,0.00,0.00,VWS V14.01,2013-04-02 05:45:00,
2013-04-02 01:51:00,36.3,19.5,29.87,NW,311,11.0,18.0,50,0.00,,---,0.00,0.00,VWS V14.01,2013-04-02 05:51:00,
2013-04-02 01:56:00,36.2,21.2,29.87,WNW,294,11.0,18.0,54,0.00,,---,0.00,0.00,VWS V14.01,2013-04-02 05:56:00,
2013-04-02 02:01:00,36.2,20.3,29.86,WNW,303,16.0,18.0,52,0.00,,---,0.00,0.00,VWS V14.01,2013-04-02 06:01:00,
2013-04-02 02:06:00,35.9,19.1,29.86,WNW,291,21.0,21.0,50,0.00,,---,0.00,0.00,VWS V14.01,2013-04-02 06:06:00,
2013-04-02 02:11:00,36.0,19.2,29.86,WNW,289,18.0,21.0,50,0.00,,---,0.00,0.00,VWS V14.01,2013-04-02 06:11:00,
2013-04-02 02:15:00,36.3,19.0,29.86,NW,305,12.0,17.0,49,0.00,,,0.00,0.00,VWS V14.01,2013-04-02 06:15:00,
2013-04-02 02:16:00,35.9,18.6,29.86,West,275,22.0,22.0,49,0.00,,---,0.00,0.00,VWS V14.01,2013-04-02 06:16:00,
2013-04-02 02:21:00,35.9,18.1,29.87,NW,304,18.0,22.0,48,0.00,,---,0.00,0.00,VWS V14.01,2013-04-02 06:21:00,
2013-04-02 02:26:00,35.6,17.4,29.87,West,277,10.0,22.0,47,0.00,,---,0.00,0.00,VWS V14.01,2013-04-02 06:26:00,
2013-04-02 02:30:00,36.6,19.7,29.86,West,281,16.0,20.0,50,0.00,,,0.00,0.00,VWS V14.01,2013-04-02 06:30:00,
2013-04-02 02:31:00,35.5,17.3,29.87,West,281,10.0,17.0,47,0.00,,---,0.00,0.00,VWS V14.01,2013-04-02 06:31:00,
2013-04-02 02:36:00,35.5,17.8,29.87,WNW,299,10.0,19.0,48,0.00,,---,0.00,0.00,VWS V14.01,2013-04-02 06:36:00,
2013-04-02 02:42:00,35.3,17.1,29.87,WNW,290,7.0,19.0,47,0.00,,---,0.00,0.00,VWS V14.01,2013-04-02 06:42:00,
2013-04-02 02:45:00,36.4,20.5,29.87,WNW,290,11.0,19.0,52,0.00,,,0.00,0.00,VWS V14.01,2013-04-02 06:45:00,
2013-04-02 02:47:00,35.2,18.0,29.88,WNW,302,9.0,18.0,49,0.00,,---,0.00,0.00,VWS V14.01,2013-04-02 06:47:00,
2013-04-02 02:52:00,35.2,17.0,29.88,NW,325,13.0,18.0,47,0.00,,---,0.00,0.00,VWS V14.01,2013-04-02 06:52:00,
2013-04-02 02:57:00,35.1,18.8,29.88,WNW,287,9.0,18.0,51,0.00,,---,0.00,0.00,VWS V14.01,2013-04-02 06:57:00,
2013-04-02 03:00:00,36.2,20.3,29.86,WNW,303,16.0,18.0,52,0.00,,,0.00,0.00,VWS V14.01,2013-04-02 07:00:00,
2013-04-02 03:02:00,35.2,18.0,29.88,West,264,14.0,21.0,49,0.00,,---,0.00,0.00,VWS V14.01,2013-04-02 07:02:00,
2013-04-02 03:07:00,35.2,18.4,29.88,NW,318,9.0,21.0,50,0.00,,---,0.00,0.00,VWS V14.01,2013-04-02 07:07:00,
2013-04-02 03:12:00,34.9,16.7,29.88,West,263,17.0,21.0,47,0.00,,---,0.00,0.00,VWS V14.01,2013-04-02 07:12:00,
2013-04-02 03:15:00,35.9,18.6,29.86,West,281,16.0,22.0,49,0.00,,,0.00,0.00,VWS V14.01,2013-04-02 07:15:00,
2013-04-02 03:17:00,34.7,18.0,29.88,NW,323,16.0,16.0,50,0.00,,---,0.00,0.00,VWS V14.01,2013-04-02 07:17:00,
2013-04-02 03:22:00,34.6,16.5,29.88,NW,306,9.0,20.0,47,0.00,,---,0.00,0.00,VWS V14.01,2013-04-02 07:22:00,
2013-04-02 03:27:00,34.6,17.9,29.88,NW,313,12.0,20.0,50,0.00,,---,0.00,0.00,VWS V14.01,2013-04-02 07:27:00,
2013-04-02 03:30:00,35.5,16.8,29.87,West,274,14.0,23.0,46,0.00,,,0.00,0.00,VWS V14.01,2013-04-02 07:30:00,
2013-04-02 03:32:00,34.7,18.9,29.88,West,280,11.0,11.0,52,0.00,,---,0.00,0.00,VWS V14.01,2013-04-02 07:32:00,
2013-04-02 03:37:00,34.7,19.8,29.88,WNW,303,10.0,15.0,54,0.00,,---,0.00,0.00,VWS V14.01,2013-04-02 07:37:00,
2013-04-02 03:42:00,34.6,18.8,29.88,West,277,15.0,16.0,52,0.00,,---,0.00,0.00,VWS V14.01,2013-04-02 07:42:00,
2013-04-02 03:45:00,35.2,18.4,29.88,NW,318,9.0,19.0,50,0.00,,,0.00,0.00,VWS V14.01,2013-04-02 07:45:00,
2013-04-02 03:47:00,34.5,18.7,29.88,WNW,298,14.0,19.0,52,0.00,,---,0.00,0.00,VWS V14.01,2013-04-02 07:47:00,
2013-04-02 03:52:00,34.5,20.0,29.88,West,277,6.0,19.0,55,0.00,,---,0.00,0.00,VWS V14.01,2013-04-02 07:52:00,
2013-04-02 03:57:00,34.4,19.5,29.89,WNW,290,7.0,19.0,54,0.00,,---,0.00,0.00,VWS V14.01,2013-04-02 07:57:00,
2013-04-02 04:00:00,35.2,20.2,29.88,West,261,16.0,21.0,54,0.00,,,0.00,0.00,VWS V14.01,2013-04-02 08:00:00,
2013-04-02 04:02:00,34.4,19.5,29.89,West,279,7.0,12.0,54,0.00,,---,0.00,0.00,VWS V14.01,2013-04-02 08:02:00,
2013-04-02 04:07:00,34.3,18.5,29.89,West,263,13.0,15.0,52,0.00,,---,0.00,0.00,VWS V14.01,2013-04-02 08:07:00,
2013-04-02 04:12:00,34.3,18.5,29.89,West,275,11.0,17.0,52,0.00,,---,0.00,0.00,VWS V14.01,2013-04-02 08:12:00,
2013-04-02 04:17:00,34.3,18.5,29.89,West,274,8.0,11.0,52,0.00,,---,0.00,0.00,VWS V14.01,2013-04-02 08:17:00,
2013-04-02 04:22:00,34.3,19.0,29.89,West,270,9.0,11.0,53,0.00,,---,0.00,0.00,VWS V14.01,2013-04-02 08:22:00,
2013-04-02 04:27:00,34.2,18.4,29.89,West,270,14.0,15.0,52,0.00,,---,0.00,0.00,VWS V14.01,2013-04-02 08:27:00,
2013-04-02 04:30:00,34.7,18.9,29.88,West,280,11.0,20.0,52,0.00,,,0.00,0.00,VWS V14.01,2013-04-02 08:30:00,
2013-04-02 04:32:00,34.2,21.0,29.89,West,265,10.0,13.0,58,0.00,,---,0.00,0.00,VWS V14.01,2013-04-02 08:32:00,
2013-04-02 04:37:00,34.1,18.8,29.89,West,278,6.0,15.0,53,0.00,,---,0.00,0.00,VWS V14.01,2013-04-02 08:37:00,
2013-04-02 04:42:00,34.1,18.3,29.89,WNW,296,12.0,16.0,52,0.00,,---,0.00,0.00,VWS V14.01,2013-04-02 08:42:00,
2013-04-02 04:45:00,34.5,18.7,29.88,West,269,12.0,17.0,52,0.00,,,0.00,0.00,VWS V14.01,2013-04-02 08:45:00,
2013-04-02 04:47:00,34.0,19.1,29.89,West,264,13.0,14.0,54,0.00,,---,0.00,0.00,VWS V14.01,2013-04-02 08:47:00,
2013-04-02 04:52:00,33.9,19.9,29.89,West,266,12.0,15.0,56,0.00,,---,0.00,0.00,VWS V14.01,2013-04-02 08:52:00,
2013-04-02 04:57:00,33.9,19.9,29.90,West,273,14.0,15.0,56,0.00,,---,0.00,0.00,VWS V14.01,2013-04-02 08:57:00,
2013-04-02 05:00:00,34.4,19.5,29.89,West,267,10.0,19.0,54,0.00,,,0.00,0.00,VWS V14.01,2013-04-02 09:00:00,
2013-04-02 05:02:00,33.8,18.0,29.90,West,266,12.0,18.0,52,0.00,,---,0.00,0.00,VWS V14.01,2013-04-02 09:02:00,
2013-04-02 05:07:00,33.8,18.5,29.90,West,269,12.0,18.0,53,0.00,,---,0.00,0.00,VWS V14.01,2013-04-02 09:07:00,
2013-04-02 05:12:00,33.8,18.0,29.90,WNW,298,11.0,20.0,52,0.00,,---,0.00,0.00,VWS V14.01,2013-04-02 09:12:00,
2013-04-02 05:17:00,33.7,18.0,29.90,West,269,14.0,18.0,52,0.00,,---,0.00,0.00,VWS V14.01,2013-04-02 09:17:00,
2013-04-02 05:22:00,33.8,18.5,29.90,West,265,14.0,21.0,53,0.00,,---,0.00,0.00,VWS V14.01,2013-04-02 09:22:00,
2013-04-02 05:28:00,33.7,18.0,29.90,West,274,14.0,21.0,52,0.00,,---,0.00,0.00,VWS V14.01,2013-04-02 09:28:00,
2013-04-02 05:33:00,33.8,19.8,29.90,West,266,14.0,16.0,56,0.00,,---,0.00,0.00,VWS V14.01,2013-04-02 09:33:00,
2013-04-02 05:38:00,33.8,20.2,29.91,West,264,15.0,16.0,57,0.00,,---,0.00,0.00,VWS V14.01,2013-04-02 09:38:00,
2013-04-02 05:43:00,33.7,18.8,29.91,West,267,13.0,19.0,54,0.00,,---,0.00,0.00,VWS V14.01,2013-04-02 09:43:00,
2013-04-02 05:45:00,34.0,19.5,29.89,West,267,12.0,16.0,55,0.00,,,0.00,0.00,VWS V14.01,2013-04-02 09:45:00,
2013-04-02 05:48:00,33.7,18.4,29.90,West,268,16.0,21.0,53,0.00,,---,0.00,0.00,VWS V14.01,2013-04-02 09:48:00,
2013-04-02 05:53:00,33.7,20.1,29.91,West,259,13.0,21.0,57,0.00,,---,0.00,0.00,VWS V14.01,2013-04-02 09:53:00,
2013-04-02 05:58:00,33.7,18.4,29.91,West,266,15.0,21.0,53,0.00,,---,0.00,0.00,VWS V14.01,2013-04-02 09:58:00,
2013-04-02 06:03:00,33.6,18.7,29.91,West,268,16.0,20.0,54,0.00,,---,0.00,0.00,VWS V14.01,2013-04-02 10:03:00,
2013-04-02 06:08:00,33.6,19.2,29.91,West,263,15.0,20.0,55,0.00,,---,0.00,0.00,VWS V14.01,2013-04-02 10:08:00,
2013-04-02 06:13:00,33.5,19.5,29.91,West,263,13.0,20.0,56,0.00,,---,0.00,0.00,VWS V14.01,2013-04-02 10:13:00,
2013-04-02 06:15:00,33.7,18.8,29.90,West,281,18.0,23.0,54,0.00,,,0.00,0.00,VWS V14.01,2013-04-02 10:15:00,
2013-04-02 06:18:00,33.5,19.5,29.92,West,266,14.0,17.0,56,0.00,,---,0.00,0.00,VWS V14.01,2013-04-02 10:18:00,
2013-04-02 06:23:00,33.3,18.5,29.92,West,264,15.0,19.0,54,0.00,,---,0.00,5.00,VWS V14.01,2013-04-02 10:23:00,
2013-04-02 06:28:00,33.3,19.7,29.92,West,261,20.0,20.0,57,0.00,,---,0.00,9.00,VWS V14.01,2013-04-02 10:28:00,
2013-04-02 06:30:00,33.8,20.6,29.90,West,266,16.0,21.0,58,0.00,,,0.00,0.00,VWS V14.01,2013-04-02 10:30:00,
2013-04-02 06:33:00,33.3,20.1,29.92,WSW,255,16.0,19.0,58,0.00,,---,0.00,12.00,VWS V14.01,2013-04-02 10:33:00,
2013-04-02 06:38:00,33.3,18.9,29.92,West,263,16.0,19.0,55,0.00,,---,0.00,18.00,VWS V14.01,2013-04-02 10:38:00,
2013-04-02 06:43:00,33.3,19.7,29.93,WSW,244,14.0,19.0,57,0.00,,---,0.00,21.00,VWS V14.01,2013-04-02 10:43:00,
2013-04-02 06:45:00,33.7,18.8,29.90,West,271,19.0,21.0,54,0.00,,,0.00,0.00,VWS V14.01,2013-04-02 10:45:00,
2013-04-02 06:48:00,33.3,20.5,29.93,WSW,257,15.0,15.0,59,0.00,,---,0.00,28.00,VWS V14.01,2013-04-02 10:48:00,
2013-04-02 06:53:00,33.6,20.0,29.93,WSW,257,14.0,17.0,57,0.00,,---,0.00,39.00,VWS V14.01,2013-04-02 10:53:00,
2013-04-02 06:58:00,33.6,20.8,29.93,WSW,253,11.0,17.0,59,0.00,,---,0.00,49.00,VWS V14.01,2013-04-02 10:58:00,
2013-04-02 07:00:00,33.6,19.6,29.91,West,265,15.0,21.0,56,0.00,,,0.00,0.00,VWS V14.01,2013-04-02 11:00:00,
2013-04-02 07:03:00,33.7,20.5,29.93,WSW,257,15.0,18.0,58,0.00,,---,0.00,65.00,VWS V14.01,2013-04-02 11:03:00,
2013-04-02 07:08:00,33.6,20.4,29.94,WSW,249,14.0,18.0,58,0.00,,---,0.00,81.00,VWS V14.01,2013-04-02 11:08:00,
2013-04-02 07:13:00,33.6,20.8,29.94,WSW,248,15.0,18.0,59,0.00,,---,0.00,97.00,VWS V14.01,2013-04-02 11:13:00,
2013-04-02 07:15:00,33.6,20.4,29.92,WSW,257,16.0,20.0,58,0.00,,,0.00,0.00,VWS V14.01,2013-04-02 11:15:00,
2013-04-02 07:18:00,33.6,20.4,29.94,WSW,244,13.0,16.0,58,0.00,,---,0.00,116.00,VWS V14.01,2013-04-02 11:18:00,
2013-04-02 07:23:00,33.5,19.9,29.94,WSW,244,15.0,16.0,57,0.00,,---,0.00,137.00,VWS V14.01,2013-04-02 11:23:00,
2013-04-02 07:28:00,33.6,20.8,29.94,WSW,254,14.0,17.0,59,0.00,,---,0.00,160.00,VWS V14.01,2013-04-02 11:28:00,
2013-04-02 07:30:00,33.3,18.5,29.92,WSW,255,13.0,20.0,54,0.00,,,0.00,12.00,VWS V14.01,2013-04-02 11:30:00,
2013-04-02 07:33:00,33.7,21.3,29.94,WSW,247,15.0,17.0,60,0.00,,---,0.00,179.00,VWS V14.01,2013-04-02 11:33:00,
2013-04-02 07:38:00,33.6,20.8,29.94,WSW,248,17.0,18.0,59,0.00,,---,0.00,202.00,VWS V14.01,2013-04-02 11:38:00,
2013-04-02 07:43:00,33.6,19.2,29.94,WSW,240,15.0,20.0,55,0.00,,---,0.00,227.00,VWS V14.01,2013-04-02 11:43:00,
2013-04-02 07:48:00,33.7,20.9,29.94,WSW,252,16.0,17.0,59,0.00,,---,0.00,251.00,VWS V14.01,2013-04-02 11:48:00,
2013-04-02 07:53:00,33.9,20.3,29.95,WSW,246,14.0,17.0,57,0.00,,---,0.00,271.00,VWS V14.01,2013-04-02 11:53:00,
2013-04-02 07:58:00,33.9,20.3,29.94,WSW,252,16.0,17.0,57,0.00,,---,0.00,294.00,VWS V14.01,2013-04-02 11:58:00,
2013-04-02 08:00:00,33.7,21.3,29.93,West,259,14.0,17.0,60,0.00,,,0.00,56.00,VWS V14.01,2013-04-02 12:00:00,
2013-04-02 08:03:00,34.0,20.4,29.94,West,260,17.0,20.0,57,0.00,,---,0.00,315.00,VWS V14.01,2013-04-02 12:03:00,
2013-04-02 08:08:00,34.0,20.0,29.95,West,262,17.0,20.0,56,0.00,,---,0.00,336.00,VWS V14.01,2013-04-02 12:08:00,
2013-04-02 08:13:00,34.0,19.5,29.94,WSW,249,14.0,20.0,55,0.00,,---,0.00,352.00,VWS V14.01,2013-04-02 12:13:00,
2013-04-02 08:15:00,33.5,20.3,29.94,WSW,252,14.0,18.0,58,0.00,,,0.00,107.00,VWS V14.01,2013-04-02 12:15:00,
2013-04-02 08:18:00,34.2,20.6,29.95,WSW,255,15.0,17.0,57,0.00,,---,0.00,373.00,VWS V14.01,2013-04-02 12:18:00,
2013-04-02 08:23:00,34.2,20.6,29.95,West,259,13.0,17.0,57,0.00,,---,0.00,394.00,VWS V14.01,2013-04-02 12:23:00,
2013-04-02 08:28:00,34.3,19.8,29.95,WSW,257,11.0,17.0,55,0.00,,---,0.00,411.00,VWS V14.01,2013-04-02 12:28:00,
2013-04-02 08:30:00,33.6,20.4,29.94,WSW,240,13.0,17.0,58,0.00,,,0.00,171.00,VWS V14.01,2013-04-02 12:30:00,
2013-04-02 08:33:00,34.5,20.9,29.95,WSW,237,16.0,17.0,57,0.00,,---,0.00,424.00,VWS V14.01,2013-04-02 12:33:00,
2013-04-02 08:38:00,34.7,21.5,29.95,SW,233,15.0,22.0,58,0.00,,---,0.00,454.00,VWS V14.01,2013-04-02 12:38:00,
2013-04-02 08:43:00,34.7,20.2,29.94,WSW,254,17.0,24.0,55,0.00,,---,0.00,499.00,VWS V14.01,2013-04-02 12:43:00,
2013-04-02 08:48:00,34.7,19.8,29.95,WSW,253,17.0,21.0,54,0.00,,---,0.00,548.00,VWS V14.01,2013-04-02 12:48:00,
2013-04-02 08:53:00,34.7,20.6,29.95,WSW,256,14.0,23.0,56,0.00,,---,0.00,587.00,VWS V14.01,2013-04-02 12:53:00,
2013-04-02 08:58:00,34.7,21.0,29.94,West,266,20.0,23.0,57,0.00,,---,0.00,239.00,VWS V14.01,2013-04-02 12:58:00,
2013-04-02 09:00:00,33.9,19.9,29.94,WSW,251,12.0,18.0,56,0.00,,,0.00,304.00,VWS V14.01,2013-04-02 13:00:00,
2013-04-02 09:03:00,34.8,20.7,29.94,West,259,22.0,24.0,56,0.00,,---,0.00,185.00,VWS V14.01,2013-04-02 13:03:00,
2013-04-02 09:08:00,34.9,20.0,29.94,WSW,242,22.0,25.0,54,0.00,,---,0.00,258.00,VWS V14.01,2013-04-02 13:08:00,
2013-04-02 09:13:00,34.7,20.2,29.94,West,261,19.0,26.0,55,0.00,,---,0.00,223.00,VWS V14.01,2013-04-02 13:13:00,
2013-04-02 09:15:00,34.1,21.3,29.94,WSW,250,14.0,20.0,59,0.00,,,0.00,360.00,VWS V14.01,2013-04-02 13:15:00,
2013-04-02 09:18:00,34.7,20.6,29.94,WNW,284,20.0,23.0,56,0.00,,---,0.00,253.00,VWS V14.01,2013-04-02 13:18:00,
2013-04-02 09:23:00,34.7,18.0,29.94,West,265,25.0,26.0,50,0.00,,---,0.00,643.00,VWS V14.01,2013-04-02 13:23:00,
2013-04-02 09:29:00,34.9,18.2,29.94,WSW,256,19.0,26.0,50,0.00,,---,0.00,659.00,VWS V14.01,2013-04-02 13:29:00,
2013-04-02 09:30:00,34.4,21.6,29.95,WSW,252,16.0,17.0,59,0.00,,,0.00,422.00,VWS V14.01,2013-04-02 13:30:00,
2013-04-02 09:34:00,35.1,19.7,29.94,West,264,17.0,26.0,53,0.00,,---,0.00,700.00,VWS V14.01,2013-04-02 13:34:00,
2013-04-02 09:39:00,34.9,19.1,29.94,West,259,15.0,26.0,52,0.00,,---,0.00,677.00,VWS V14.01,2013-04-02 13:39:00,
2013-04-02 09:44:00,34.9,19.1,29.94,WSW,245,14.0,26.0,52,0.00,,---,0.00,670.00,VWS V14.01,2013-04-02 13:44:00,
2013-04-02 09:45:00,34.7,20.6,29.94,WSW,252,18.0,24.0,56,0.00,,,0.00,513.00,VWS V14.01,2013-04-02 13:45:00,
2013-04-02 09:48:00,35.0,19.2,29.94,West,259,22.0,25.0,52,0.00,,---,0.00,679.00,VWS V14.01,2013-04-02 13:48:00,
2013-04-02 09:54:00,35.0,18.2,29.94,West,262,19.0,27.0,50,0.00,,---,0.00,717.00,VWS V14.01,2013-04-02 13:54:00,
2013-04-02 09:59:00,35.2,18.9,29.94,WSW,252,22.0,27.0,51,0.00,,---,0.00,724.00,VWS V14.01,2013-04-02 13:59:00,
2013-04-02 10:00:00,34.7,20.6,29.94,West,265,21.0,23.0,56,0.00,,,0.00,171.00,VWS V14.01,2013-04-02 14:00:00,
2013-04-02 10:04:00,35.2,18.9,29.94,WSW,253,14.0,20.0,51,0.00,,---,0.00,803.00,VWS V14.01,2013-04-02 14:04:00,
2013-04-02 10:09:00,35.3,19.0,29.93,WSW,248,19.0,24.0,51,0.00,,---,0.00,858.00,VWS V14.01,2013-04-02 14:09:00,
2013-04-02 10:14:00,35.4,19.5,29.93,WSW,243,22.0,24.0,52,0.00,,---,0.00,853.00,VWS V14.01,2013-04-02 14:14:00,
2013-04-02 10:19:00,35.5,19.6,29.93,SW,235,18.0,21.0,52,0.00,,---,0.00,816.00,VWS V14.01,2013-04-02 14:19:00,
2013-04-02 10:24:00,35.6,21.0,29.94,West,261,20.0,21.0,55,0.00,,---,0.00,295.00,VWS V14.01,2013-04-02 14:24:00,
2013-04-02 10:29:00,35.5,19.2,29.94,West,259,20.0,22.0,51,0.00,,---,0.00,315.00,VWS V14.01,2013-04-02 14:29:00,
2013-04-02 10:30:00,34.9,18.6,29.94,West,277,16.0,26.0,51,0.00,,,0.00,668.00,VWS V14.01,2013-04-02 14:30:00,
2013-04-02 10:34:00,35.6,18.8,29.93,WSW,257,16.0,19.0,50,0.00,,---,0.00,951.00,VWS V14.01,2013-04-02 14:34:00,
2013-04-02 10:39:00,35.6,20.6,29.93,WSW,250,24.0,24.0,54,0.00,,---,0.00,260.00,VWS V14.01,2013-04-02 14:39:00,
2013-04-02 10:44:00,35.6,17.9,29.93,WSW,244,16.0,24.0,48,0.00,,---,0.00,940.00,VWS V14.01,2013-04-02 14:44:00,
2013-04-02 10:45:00,35.0,20.5,29.94,WSW,250,21.0,26.0,55,0.00,,,0.00,668.00,VWS V14.01,2013-04-02 14:45:00,
2013-04-02 10:49:00,35.7,19.4,29.93,WSW,256,23.0,23.0,51,0.00,,---,0.00,241.00,VWS V14.01,2013-04-02 14:49:00,
2013-04-02 10:54:00,35.7,19.4,29.93,West,261,14.0,24.0,51,0.00,,---,0.00,963.00,VWS V14.01,2013-04-02 14:54:00,
2013-04-02 10:59:00,36.0,19.6,29.93,West,270,21.0,24.0,51,0.00,,---,0.00,983.00,VWS V14.01,2013-04-02 14:59:00,
2013-04-02 11:00:00,35.2,18.4,29.93,WSW,250,20.0,27.0,50,0.00,,,0.00,738.00,VWS V14.01,2013-04-02 15:00:00,
2013-04-02 11:04:00,36.1,17.8,29.93,WSW,258,18.0,23.0,47,0.00,,---,0.00,942.00,VWS V14.01,2013-04-02 15:04:00,
2013-04-02 11:09:00,36.1,18.3,29.93,WSW,250,20.0,23.0,48,0.00,,---,0.00,956.00,VWS V14.01,2013-04-02 15:09:00,
2013-04-02 11:14:00,36.1,18.3,29.93,WSW,251,11.0,23.0,48,0.00,,---,0.00,1032.00,VWS V14.01,2013-04-02 15:14:00,
2013-04-02 11:15:00,35.4,18.2,29.93,SW,231,16.0,24.0,49,0.00,,,0.00,874.00,VWS V14.01,2013-04-02 15:15:00,
2013-04-02 11:19:00,36.1,19.7,29.93,West,262,18.0,24.0,51,0.00,,---,0.00,253.00,VWS V14.01,2013-04-02 15:19:00,
2013-04-02 11:24:00,36.3,18.5,29.93,WSW,243,12.0,24.0,48,0.00,,---,0.00,896.00,VWS V14.01,2013-04-02 15:24:00,
2013-04-02 11:29:00,36.3,18.5,29.93,West,262,16.0,24.0,48,0.00,,---,0.00,666.00,VWS V14.01,2013-04-02 15:29:00,
2013-04-02 11:34:00,36.4,17.6,29.93,WSW,246,15.0,19.0,46,0.00,,---,0.00,285.00,VWS V14.01,2013-04-02 15:34:00,
2013-04-02 11:39:00,36.5,19.2,29.92,WSW,254,21.0,23.0,49,0.00,,---,0.00,285.00,VWS V14.01,2013-04-02 15:39:00,
2013-04-02 11:44:00,36.7,18.9,29.92,WSW,247,20.0,23.0,48,0.00,,---,0.00,392.00,VWS V14.01,2013-04-02 15:44:00,
2013-04-02 11:45:00,35.7,20.3,29.93,WSW,254,17.0,24.0,53,0.00,,,0.00,926.00,VWS V14.01,2013-04-02 15:45:00,
2013-04-02 11:49:00,36.6,17.3,29.92,WSW,252,17.0,22.0,45,0.00,,---,0.00,318.00,VWS V14.01,2013-04-02 15:49:00,
2013-04-02 11:54:00,36.6,18.3,29.92,SW,234,19.0,22.0,47,0.00,,---,0.00,322.00,VWS V14.01,2013-04-02 15:54:00,
2013-04-02 11:59:00,36.6,20.2,29.92,WSW,255,12.0,22.0,51,0.00,,---,0.00,292.00,VWS V14.01,2013-04-02 15:59:00,
2013-04-02 12:04:00,36.6,19.3,29.91,WSW,248,21.0,21.0,49,0.00,,---,0.00,362.00,VWS V14.01,2013-04-02 16:04:00,
2013-04-02 12:09:00,36.6,19.3,29.91,WSW,247,16.0,21.0,49,0.00,,---,0.00,279.00,VWS V14.01,2013-04-02 16:09:00,
2013-04-02 12:14:00,36.7,21.2,29.91,West,265,16.0,21.0,53,0.00,,---,0.00,292.00,VWS V14.01,2013-04-02 16:14:00,
2013-04-02 12:19:00,36.8,18.0,29.91,West,270,14.0,18.0,46,0.00,,---,0.00,239.00,VWS V14.01,2013-04-02 16:19:00,
2013-04-02 12:24:00,37.0,21.0,29.91,WSW,241,22.0,22.0,52,0.00,,---,0.00,279.00,VWS V14.01,2013-04-02 16:24:00,
2013-04-02 12:29:00,37.1,17.7,29.90,WSW,248,22.0,22.0,45,0.00,,---,0.00,346.00,VWS V14.01,2013-04-02 16:29:00,
2013-04-02 12:34:00,37.3,17.4,29.90,WSW,250,24.0,24.0,44,0.00,,---,0.00,967.00,VWS V14.01,2013-04-02 16:34:00,
2013-04-02 12:39:00,37.5,17.6,29.90,WSW,252,18.0,25.0,44,0.00,,---,0.00,654.00,VWS V14.01,2013-04-02 16:39:00,
2013-04-02 12:44:00,37.5,17.0,29.90,WSW,248,18.0,25.0,43,0.00,,---,0.00,251.00,VWS V14.01,2013-04-02 16:44:00,
2013-04-02 12:45:00,36.7,20.3,29.92,WSW,245,15.0,23.0,51,0.00,,,0.00,448.00,VWS V14.01,2013-04-02 16:45:00,
2013-04-02 12:49:00,37.3,17.9,29.90,WSW,250,18.0,18.0,45,0.00,,---,0.00,399.00,VWS V14.01,2013-04-02 16:49:00,
2013-04-02 12:55:00,37.5,18.1,29.90,WSW,250,18.0,24.0,45,0.00,,---,0.00,281.00,VWS V14.01,2013-04-02 16:55:00,
2013-04-02 13:00:00,37.7,15.6,29.90,WSW,254,21.0,24.0,40,0.00,,---,0.00,330.00,VWS V14.01,2013-04-02 17:00:00,
2013-04-02 13:05:00,37.8,17.9,29.90,WSW,250,19.0,22.0,44,0.00,,---,0.00,418.00,VWS V14.01,2013-04-02 17:05:00,
2013-04-02 13:10:00,37.9,19.0,29.89,WSW,246,22.0,22.0,46,0.00,,---,0.00,329.00,VWS V14.01,2013-04-02 17:10:00,
2013-04-02 13:15:00,37.8,17.9,29.90,WSW,256,18.0,24.0,44,0.00,,---,0.00,276.00,VWS V14.01,2013-04-02 17:15:00,
2013-04-02 13:20:00,37.8,17.3,29.89,West,259,13.0,16.0,43,0.00,,---,0.00,311.00,VWS V14.01,2013-04-02 17:20:00,
2013-04-02 13:25:00,37.7,21.2,29.89,SW,231,26.0,29.0,51,0.00,,---,0.00,260.00,VWS V14.01,2013-04-02 17:25:00,
2013-04-02 13:30:00,37.1,22.4,29.89,SW,227,24.0,32.0,55,0.00,,---,0.00,322.00,VWS V14.01,2013-04-02 17:30:00,
2013-04-02 13:35:00,37.3,22.6,29.89,SW,220,29.0,31.0,55,0.00,,---,0.00,708.00,VWS V14.01,2013-04-02 17:35:00,
2013-04-02 13:40:00,37.1,21.6,29.89,WSW,237,28.0,31.0,53,0.00,,---,0.00,272.00,VWS V14.01,2013-04-02 17:40:00,
2013-04-02 13:45:00,37.1,22.9,29.88,SW,219,28.0,32.0,56,0.00,,---,0.00,341.00,VWS V14.01,2013-04-02 17:45:00,
2013-04-02 13:50:00,37.3,24.3,29.88,SSW,213,28.0,33.0,59,0.00,,---,0.00,531.00,VWS V14.01,2013-04-02 17:50:00,
2013-04-02 13:55:00,37.3,23.5,29.88,SW,219,28.0,33.0,57,0.00,,---,0.00,274.00,VWS V14.01,2013-04-02 17:55:00,
2013-04-02 14:00:00,37.4,23.6,29.88,SW,223,30.0,34.0,57,0.00,,---,0.00,279.00,VWS V14.01,2013-04-02 18:00:00,
2013-04-02 14:05:00,37.3,24.7,29.87,SW,221,32.0,35.0,60,0.00,,---,0.00,336.00,VWS V14.01,2013-04-02 18:05:00,
2013-04-02 14:10:00,37.5,24.1,29.88,SSW,208,32.0,35.0,58,0.00,,---,0.00,434.00,VWS V14.01,2013-04-02 18:10:00,
2013-04-02 14:15:00,38.0,24.1,29.87,SW,225,25.0,35.0,57,0.00,,---,0.00,1072.00,VWS V14.01,2013-04-02 18:15:00,
2013-04-02 14:20:00,38.0,24.5,29.87,SW,225,32.0,32.0,58,0.00,,---,0.00,279.00,VWS V14.01,2013-04-02 18:20:00,
2013-04-02 14:26:00,37.9,26.8,29.87,SW,216,32.0,32.0,64,0.00,,---,0.00,339.00,VWS V14.01,2013-04-02 18:26:00,
2013-04-02 14:31:00,37.9,26.8,29.87,SW,226,24.0,35.0,64,0.00,,---,0.00,269.00,VWS V14.01,2013-04-02 18:31:00,
2013-04-02 14:36:00,38.0,25.4,29.87,SW,219,29.0,33.0,60,0.00,,---,0.00,318.00,VWS V14.01,2013-04-02 18:36:00,
2013-04-02 14:41:00,38.3,25.6,29.86,SW,222,29.0,34.0,60,0.00,,---,0.00,494.00,VWS V14.01,2013-04-02 18:41:00,
2013-04-02 14:45:00,37.1,23.7,29.88,SW,228,29.0,32.0,58,0.00,,,0.00,341.00,VWS V14.01,2013-04-02 18:45:00,
2013-04-02 14:46:00,38.2,26.7,29.86,SW,225,28.0,34.0,63,0.00,,---,0.00,227.00,VWS V14.01,2013-04-02 18:46:00,
2013-04-02 14:51:00,38.4,24.1,29.87,WSW,252,12.0,32.0,56,0.00,,---,0.00,264.00,VWS V14.01,2013-04-02 18:51:00,
2013-04-02 14:56:00,39.0,18.4,29.87,WSW,254,18.0,32.0,43,0.00,,---,0.00,220.00,VWS V14.01,2013-04-02 18:56:00,
2013-04-02 15:01:00,39.7,19.0,29.86,WSW,254,15.0,17.0,43,0.00,,---,0.00,805.00,VWS V14.01,2013-04-02 19:01:00,
2013-04-02 15:06:00,40.1,18.3,29.86,West,269,23.0,25.0,41,0.00,,---,0.00,615.00,VWS V14.01,2013-04-02 19:06:00,
2013-04-02 15:12:00,40.2,19.0,29.86,West,259,23.0,28.0,42,0.00,,---,0.00,223.00,VWS V14.01,2013-04-02 19:12:00,
2013-04-02 15:16:00,39.9,17.5,29.86,WSW,257,17.0,21.0,40,0.00,,---,0.00,267.00,VWS V14.01,2013-04-02 19:16:00,
2013-04-02 15:21:00,40.0,17.6,29.86,WSW,258,22.0,25.0,40,0.00,,---,0.00,236.00,VWS V14.01,2013-04-02 19:21:00,
2013-04-02 15:27:00,40.3,17.3,29.86,West,262,17.0,30.0,39,0.00,,---,0.00,863.00,VWS V14.01,2013-04-02 19:27:00,
2013-04-02 15:30:00,37.9,26.8,29.87,SW,219,25.0,35.0,64,0.00,,,0.00,262.00,VWS V14.01,2013-04-02 19:30:00,
2013-04-02 15:32:00,40.6,19.9,29.86,WSW,249,24.0,24.0,43,0.00,,---,0.00,334.00,VWS V14.01,2013-04-02 19:32:00,
2013-04-02 15:37:00,40.6,15.8,29.86,WSW,253,22.0,28.0,36,0.00,,---,0.00,731.00,VWS V14.01,2013-04-02 19:37:00,
2013-04-02 15:42:00,40.5,18.1,29.86,WSW,255,23.0,29.0,40,0.00,,---,0.00,199.00,VWS V14.01,2013-04-02 19:42:00,
2013-04-02 15:45:00,38.2,26.7,29.86,SW,233,30.0,34.0,63,0.00,,,0.00,227.00,VWS V14.01,2013-04-02 19:45:00,
2013-04-02 15:47:00,40.8,19.5,29.86,NW,306,16.0,21.0,42,0.00,,---,0.00,172.00,VWS V14.01,2013-04-02 19:47:00,
2013-04-02 15:53:00,40.7,16.5,29.86,West,275,20.0,21.0,37,0.00,,---,0.00,680.00,VWS V14.01,2013-04-02 19:53:00,
2013-04-02 15:58:00,41.1,18.6,29.86,West,259,17.0,21.0,40,0.00,,---,0.00,742.00,VWS V14.01,2013-04-02 19:58:00,
2013-04-02 16:03:00,40.7,19.4,29.86,WSW,238,23.0,27.0,42,0.00,,---,0.00,151.00,VWS V14.01,2013-04-02 20:03:00,
2013-04-02 16:08:00,40.3,16.7,29.86,WSW,254,20.0,31.0,38,0.00,,---,0.00,123.00,VWS V14.01,2013-04-02 20:08:00,
2013-04-02 16:13:00,40.2,17.8,29.86,West,267,23.0,31.0,40,0.00,,---,0.00,153.00,VWS V14.01,2013-04-02 20:13:00,
2013-04-02 16:15:00,39.9,18.1,29.86,WSW,250,21.0,28.0,41,0.00,,,0.00,267.00,VWS V14.01,2013-04-02 20:15:00,
2013-04-02 16:18:00,40.5,17.5,29.86,West,271,19.0,26.0,39,0.00,,---,0.00,197.00,VWS V14.01,2013-04-02 20:18:00,
2013-04-02 16:23:00,40.9,17.3,29.86,WSW,257,29.0,30.0,38,0.00,,---,0.00,594.00,VWS V14.01,2013-04-02 20:23:00,
2013-04-02 16:28:00,41.1,20.3,29.86,West,261,19.0,30.0,43,0.00,,---,0.00,584.00,VWS V14.01,2013-04-02 20:28:00,
2013-04-02 16:33:00,41.1,18.6,29.86,West,259,20.0,26.0,40,0.00,,---,0.00,524.00,VWS V14.01,2013-04-02 20:33:00,
2013-04-02 16:38:00,40.5,19.2,29.86,WSW,250,21.0,29.0,42,0.00,,---,0.00,148.00,VWS V14.01,2013-04-02 20:38:00,
2013-04-02 16:43:00,40.5,16.3,29.87,WNW,298,22.0,29.0,37,0.00,,---,0.00,163.00,VWS V14.01,2013-04-02 20:43:00,
2013-04-02 16:45:00,40.7,20.5,29.86,WSW,253,17.0,29.0,44,0.00,,,0.00,726.00,VWS V14.01,2013-04-02 20:45:00,
2013-04-02 16:48:00,41.0,17.4,29.87,WSW,257,18.0,24.0,38,0.00,,---,0.00,489.00,VWS V14.01,2013-04-02 20:48:00,
2013-04-02 16:53:00,41.1,20.3,29.87,West,265,26.0,33.0,43,0.00,,---,0.00,413.00,VWS V14.01,2013-04-02 20:53:00,
2013-04-02 16:58:00,40.7,17.7,29.87,West,263,24.0,33.0,39,0.00,,---,0.00,98.00,VWS V14.01,2013-04-02 20:58:00,
2013-04-02 17:00:00,41.0,19.7,29.85,WSW,257,24.0,30.0,42,0.00,,,0.00,155.00,VWS V14.01,2013-04-02 21:00:00,
2013-04-02 17:03:00,40.3,17.3,29.87,West,267,26.0,27.0,39,0.00,,---,0.00,105.00,VWS V14.01,2013-04-02 21:03:00,
2013-04-02 17:08:00,40.4,18.0,29.88,West,269,17.0,30.0,40,0.00,,---,0.00,139.00,VWS V14.01,2013-04-02 21:08:00,
2013-04-02 17:13:00,40.6,17.0,29.88,West,263,22.0,32.0,38,0.00,,---,0.00,260.00,VWS V14.01,2013-04-02 21:13:00,
2013-04-02 17:15:00,40.4,18.0,29.86,West,271,24.0,31.0,40,0.00,,,0.00,650.00,VWS V14.01,2013-04-02 21:15:00,
2013-04-02 17:18:00,40.9,16.6,29.88,West,268,21.0,29.0,37,0.00,,---,0.00,227.00,VWS V14.01,2013-04-02 21:18:00,
2013-04-02 17:23:00,40.9,18.5,29.88,West,266,23.0,29.0,40,0.00,,---,0.00,204.00,VWS V14.01,2013-04-02 21:23:00,
2013-04-02 17:28:00,40.8,17.2,29.88,West,275,17.0,29.0,38,0.00,,---,0.00,257.00,VWS V14.01,2013-04-02 21:28:00,
2013-04-02 17:30:00,41.1,18.0,29.86,WSW,254,25.0,30.0,39,0.00,,,0.00,394.00,VWS V14.01,2013-04-02 21:30:00,
2013-04-02 17:33:00,40.8,15.3,29.88,WNW,291,19.0,26.0,35,0.00,,---,0.00,227.00,VWS V14.01,2013-04-02 21:33:00,
2013-04-02 17:38:00,40.9,18.5,29.89,West,271,24.0,30.0,40,0.00,,---,0.00,262.00,VWS V14.01,2013-04-02 21:38:00,
2013-04-02 17:44:00,40.8,17.2,29.89,West,272,18.0,30.0,38,0.00,,---,0.00,236.00,VWS V14.01,2013-04-02 21:44:00,
2013-04-02 17:45:00,40.8,17.2,29.86,WNW,282,21.0,29.0,38,0.00,,,0.00,501.00,VWS V14.01,2013-04-02 21:45:00,
2013-04-02 17:49:00,40.7,18.9,29.89,West,267,26.0,30.0,41,0.00,,---,0.00,232.00,VWS V14.01,2013-04-02 21:49:00,
2013-04-02 17:54:00,40.7,17.1,29.89,West,265,24.0,30.0,38,0.00,,---,0.00,206.00,VWS V14.01,2013-04-02 21:54:00,
2013-04-02 17:59:00,40.5,15.7,29.90,West,269,24.0,32.0,36,0.00,,---,0.00,179.00,VWS V14.01,2013-04-02 21:59:00,
2013-04-02 18:04:00,40.4,15.6,29.90,WSW,252,24.0,32.0,36,0.00,,---,0.00,155.00,VWS V14.01,2013-04-02 22:04:00,
2013-04-02 18:09:00,40.3,15.5,29.90,West,269,24.0,32.0,36,0.00,,---,0.00,123.00,VWS V14.01,2013-04-02 22:09:00,
2013-04-02 18:14:00,40.2,15.4,29.90,West,267,22.0,32.0,36,0.00,,---,0.00,79.00,VWS V14.01,2013-04-02 22:14:00,
2013-04-02 18:15:00,40.9,18.5,29.87,WNW,290,22.0,32.0,40,0.00,,,0.00,257.00,VWS V14.01,2013-04-02 22:15:00,
2013-04-02 18:19:00,40.2,16.0,29.91,West,268,22.0,26.0,37,0.00,,---,0.00,56.00,VWS V14.01,2013-04-02 22:19:00,
2013-04-02 18:24:00,40.1,17.1,29.91,West,281,13.0,27.0,39,0.00,,---,0.00,46.00,VWS V14.01,2013-04-02 22:24:00,
2013-04-02 18:29:00,40.1,15.9,29.91,West,275,21.0,28.0,37,0.00,,---,0.00,30.00,VWS V14.01,2013-04-02 22:29:00,
2013-04-02 18:30:00,40.9,17.9,29.88,West,271,19.0,29.0,39,0.00,,,0.00,253.00,VWS V14.01,2013-04-02 22:30:00,
2013-04-02 18:34:00,40.0,15.9,29.92,West,260,19.0,21.0,37,0.00,,---,0.00,25.00,VWS V14.01,2013-04-02 22:34:00,
2013-04-02 18:39:00,40.0,18.2,29.91,West,265,23.0,24.0,41,0.00,,---,0.00,23.00,VWS V14.01,2013-04-02 22:39:00,
2013-04-02 18:44:00,39.9,17.0,29.92,West,271,22.0,25.0,39,0.00,,---,0.00,21.00,VWS V14.01,2013-04-02 22:44:00,
2013-04-02 18:49:00,39.9,15.8,29.92,West,275,25.0,26.0,37,0.00,,---,0.00,18.00,VWS V14.01,2013-04-02 22:49:00,
2013-04-02 18:54:00,39.8,16.9,29.92,West,265,20.0,30.0,39,0.00,,---,0.00,14.00,VWS V14.01,2013-04-02 22:54:00,
2013-04-02 18:59:00,39.7,16.2,29.92,West,271,21.0,30.0,38,0.00,,---,0.00,11.00,VWS V14.01,2013-04-02 22:59:00,
2013-04-02 19:00:00,40.5,15.7,29.90,West,260,27.0,32.0,36,0.00,,,0.00,169.00,VWS V14.01,2013-04-02 23:00:00,
2013-04-02 19:04:00,39.6,16.1,29.93,West,265,25.0,29.0,38,0.00,,---,0.00,9.00,VWS V14.01,2013-04-02 23:04:00,
2013-04-02 19:09:00,39.5,14.8,29.93,West,267,21.0,29.0,36,0.00,,---,0.00,5.00,VWS V14.01,2013-04-02 23:09:00,
2013-04-02 19:14:00,39.3,17.0,29.93,West,263,24.0,29.0,40,0.00,,---,0.00,0.00,VWS V14.01,2013-04-02 23:14:00,
2013-04-02 19:15:00,40.2,14.8,29.90,WNW,300,22.0,32.0,35,0.00,,,0.00,67.00,VWS V14.01,2013-04-02 23:15:00,
2013-04-02 19:20:00,39.2,15.7,29.93,West,272,23.0,24.0,38,0.00,,---,0.00,0.00,VWS V14.01,2013-04-02 23:20:00,
2013-04-02 19:25:00,39.1,15.6,29.94,WNW,285,19.0,25.0,38,0.00,,---,0.00,0.00,VWS V14.01,2013-04-02 23:25:00,
2013-04-02 19:30:00,39.0,14.3,29.94,West,269,16.0,25.0,36,0.00,,---,0.00,0.00,VWS V14.01,2013-04-02 23:30:00,
2013-04-02 19:35:00,39.0,16.7,29.94,West,263,19.0,20.0,40,0.00,,---,0.00,0.00,VWS V14.01,2013-04-02 23:35:00,
2013-04-02 19:40:00,38.9,15.5,29.94,West,275,15.0,24.0,38,0.00,,---,0.00,0.00,VWS V14.01,2013-04-02 23:40:00,
2013-04-02 19:45:00,38.9,15.5,29.94,West,272,21.0,24.0,38,0.00,,---,0.00,0.00,VWS V14.01,2013-04-02 23:45:00,
2013-04-02 19:50:00,38.8,14.8,29.95,West,271,17.0,24.0,37,0.00,,---,0.00,0.00,VWS V14.01,2013-04-02 23:50:00,
2013-04-02 19:55:00,38.8,18.8,29.95,West,267,14.0,24.0,44,0.00,,---,0.00,0.00,VWS V14.01,2013-04-02 23:55:00,
2013-04-02 20:00:00,38.7,16.5,29.95,WNW,294,10.0,24.0,40,0.00,,---,0.00,0.00,VWS V14.01,2013-04-03 00:00:00,
2013-04-02 20:05:00,38.7,17.6,29.96,West,269,16.0,20.0,42,0.00,,---,0.00,0.00,VWS V14.01,2013-04-03 00:05:00,
2013-04-02 20:10:00,38.6,17.0,29.96,West,271,15.0,21.0,41,0.00,,---,0.00,0.00,VWS V14.01,2013-04-03 00:10:00,
2013-04-02 20:15:00,38.5,16.9,29.96,West,265,16.0,22.0,41,0.00,,---,0.00,0.00,VWS V14.01,2013-04-03 00:15:00,
2013-04-02 20:20:00,38.5,17.4,29.97,West,261,18.0,22.0,42,0.00,,---,0.00,0.00,VWS V14.01,2013-04-03 00:20:00,
2013-04-02 20:26:00,38.5,18.0,29.97,West,280,12.0,22.0,43,0.00,,---,0.00,0.00,VWS V14.01,2013-04-03 00:26:00,
2013-04-02 20:30:00,39.0,16.2,29.94,West,269,17.0,25.0,39,0.00,,,0.00,0.00,VWS V14.01,2013-04-03 00:30:00,
2013-04-02 20:31:00,38.4,16.8,29.98,West,279,14.0,14.0,41,0.00,,---,0.00,0.00,VWS V14.01,2013-04-03 00:31:00,
2013-04-02 20:36:00,38.2,18.2,29.98,WNW,283,8.0,17.0,44,0.00,,---,0.00,0.00,VWS V14.01,2013-04-03 00:36:00,
2013-04-02 20:41:00,38.2,16.6,29.98,West,275,17.0,20.0,41,0.00,,---,0.00,0.00,VWS V14.01,2013-04-03 00:41:00,
2013-04-02 20:45:00,38.8,14.8,29.94,West,271,19.0,26.0,37,0.00,,,0.00,0.00,VWS V14.01,2013-04-03 00:45:00,
2013-04-02 20:46:00,38.2,16.6,29.98,West,273,16.0,18.0,41,0.00,,---,0.00,0.00,VWS V14.01,2013-04-03 00:46:00,
2013-04-02 20:51:00,38.1,18.1,29.99,West,268,11.0,19.0,44,0.00,,---,0.00,0.00,VWS V14.01,2013-04-03 00:51:00,
2013-04-02 20:57:00,38.0,17.5,29.99,NNW,327,7.0,19.0,43,0.00,,---,0.00,0.00,VWS V14.01,2013-04-03 00:57:00,
2013-04-02 21:00:00,38.7,16.5,29.95,West,281,16.0,24.0,40,0.00,,,0.00,0.00,VWS V14.01,2013-04-03 01:00:00,
2013-04-02 21:02:00,37.8,16.8,29.99,West,278,11.0,11.0,42,0.00,,---,0.00,0.00,VWS V14.01,2013-04-03 01:02:00,
2013-04-02 21:07:00,37.5,16.0,29.99,NW,305,9.0,13.0,41,0.00,,---,0.00,0.00,VWS V14.01,2013-04-03 01:07:00,
2013-04-02 21:12:00,37.3,16.3,30.00,West,275,11.0,13.0,42,0.00,,---,0.00,0.00,VWS V14.01,2013-04-03 01:12:00,
2013-04-02 21:15:00,38.5,16.9,29.97,West,275,16.0,22.0,41,0.00,,,0.00,0.00,VWS V14.01,2013-04-03 01:15:00,
2013-04-02 21:17:00,37.3,16.3,30.00,WNW,295,7.0,13.0,42,0.00,,---,0.00,0.00,VWS V14.01,2013-04-03 01:17:00,
2013-04-02 21:22:00,37.3,17.4,30.00,West,269,12.0,15.0,44,0.00,,---,0.00,0.00,VWS V14.01,2013-04-03 01:22:00,
2013-04-02 21:27:00,37.3,16.9,30.00,West,279,8.0,16.0,43,0.00,,---,0.00,0.00,VWS V14.01,2013-04-03 01:27:00,
2013-04-02 21:30:00,38.4,17.3,29.97,WNW,286,12.0,22.0,42,0.00,,,0.00,0.00,VWS V14.01,2013-04-03 01:30:00,
2013-04-02 21:32:00,37.2,16.8,30.00,West,271,10.0,12.0,43,0.00,,---,0.00,0.00,VWS V14.01,2013-04-03 01:32:00,
2013-04-02 21:37:00,37.1,17.2,30.00,NW,305,7.0,14.0,44,0.00,,---,0.00,0.00,VWS V14.01,2013-04-03 01:37:00,
2013-04-02 21:42:00,37.0,16.6,30.00,West,265,11.0,15.0,43,0.00,,---,0.00,0.00,VWS V14.01,2013-04-03 01:42:00,
2013-04-02 21:47:00,37.0,16.6,30.00,West,265,13.0,19.0,43,0.00,,---,0.00,0.00,VWS V14.01,2013-04-03 01:47:00,
2013-04-02 21:52:00,37.1,18.8,30.00,West,261,15.0,19.0,47,0.00,,---,0.00,0.00,VWS V14.01,2013-04-03 01:52:00,
2013-04-02 21:57:00,37.2,16.8,30.00,West,268,18.0,20.0,43,0.00,,---,0.00,0.00,VWS V14.01,2013-04-03 01:57:00,
2013-04-02 22:02:00,37.1,18.2,30.00,West,264,16.0,17.0,46,0.00,,---,0.00,0.00,VWS V14.01,2013-04-03 02:02:00,
2013-04-02 22:07:00,37.2,18.3,30.00,West,263,16.0,19.0,46,0.00,,---,0.00,0.00,VWS V14.01,2013-04-03 02:07:00,
2013-04-02 22:12:00,37.1,19.7,30.00,West,269,14.0,19.0,49,0.00,,---,0.00,0.00,VWS V14.01,2013-04-03 02:12:00,
2013-04-02 22:17:00,37.1,18.2,30.00,West,263,16.0,17.0,46,0.00,,---,0.00,0.00,VWS V14.01,2013-04-03 02:17:00,
2013-04-02 22:22:00,37.0,17.6,30.00,West,267,16.0,18.0,45,0.00,,---,0.00,0.00,VWS V14.01,2013-04-03 02:22:00,
2013-04-02 22:27:00,37.0,19.6,30.00,West,265,16.0,18.0,49,0.00,,---,0.00,0.00,VWS V14.01,2013-04-03 02:27:00,
2013-04-02 22:30:00,37.2,16.8,30.00,West,265,11.0,16.0,43,0.00,,,0.00,0.00,VWS V14.01,2013-04-03 02:30:00,
2013-04-02 22:32:00,36.9,16.5,30.01,West,259,16.0,19.0,43,0.00,,---,0.00,0.00,VWS V14.01,2013-04-03 02:32:00,
2013-04-02 22:38:00,36.8,18.5,30.01,West,260,15.0,19.0,47,0.00,,---,0.00,0.00,VWS V14.01,2013-04-03 02:38:00,
2013-04-02 22:43:00,36.8,18.5,30.01,West,261,17.0,19.0,47,0.00,,---,0.00,0.00,VWS V14.01,2013-04-03 02:43:00,
2013-04-02 22:45:00,37.0,18.2,30.00,West,262,12.0,15.0,46,0.00,,,0.00,0.00,VWS V14.01,2013-04-03 02:45:00,
2013-04-02 22:48:00,36.7,18.9,30.01,West,268,14.0,15.0,48,0.00,,---,0.00,0.00,VWS V14.01,2013-04-03 02:48:00,
2013-04-02 22:53:00,36.5,18.2,30.00,West,264,15.0,16.0,47,0.00,,---,0.00,0.00,VWS V14.01,2013-04-03 02:53:00,
2013-04-02 22:58:00,36.5,18.2,30.00,West,262,14.0,17.0,47,0.00,,---,0.00,0.00,VWS V14.01,2013-04-03 02:58:00,
2013-04-02 23:00:00,37.1,16.7,30.00,West,267,17.0,21.0,43,0.00,,,0.00,0.00,VWS V14.01,2013-04-03 03:00:00,
2013-04-02 23:03:00,36.3,17.0,30.00,West,264,14.0,17.0,45,0.00,,---,0.00,0.00,VWS V14.01,2013-04-03 03:03:00,
2013-04-02 23:08:00,36.3,17.0,30.00,West,263,14.0,19.0,45,0.00,,---,0.00,0.00,VWS V14.01,2013-04-03 03:08:00,
2013-04-02 23:13:00,36.3,18.0,30.01,West,263,15.0,19.0,47,0.00,,---,0.00,0.00,VWS V14.01,2013-04-03 03:13:00,
2013-04-02 23:15:00,37.1,18.2,30.00,West,266,14.0,19.0,46,0.00,,,0.00,0.00,VWS V14.01,2013-04-03 03:15:00,
2013-04-02 23:18:00,36.4,19.5,30.00,West,262,15.0,17.0,50,0.00,,---,0.00,0.00,VWS V14.01,2013-04-03 03:18:00,
2013-04-02 23:23:00,36.4,18.6,30.00,WSW,252,12.0,19.0,48,0.00,,---,0.00,0.00,VWS V14.01,2013-04-03 03:23:00,
2013-04-02 23:28:00,36.3,18.0,30.00,West,264,14.0,21.0,47,0.00,,---,0.00,0.00,VWS V14.01,2013-04-03 03:28:00,
2013-04-02 23:30:00,37.0,18.2,30.01,West,264,18.0,18.0,46,0.00,,,0.00,0.00,VWS V14.01,2013-04-03 03:30:00,
2013-04-02 23:33:00,36.3,18.5,30.00,West,271,16.0,19.0,48,0.00,,---,0.00,0.00,VWS V14.01,2013-04-03 03:33:00,
2013-04-02 23:38:00,36.3,19.5,30.00,West,263,14.0,19.0,50,0.00,,---,0.00,0.00,VWS V14.01,2013-04-03 03:38:00,
2013-04-02 23:43:00,36.2,19.4,30.00,West,265,15.0,20.0,50,0.00,,---,0.00,0.00,VWS V14.01,2013-04-03 03:43:00,
2013-04-02 23:48:00,36.2,19.4,30.01,West,269,9.0,17.0,50,0.00,,---,0.00,0.00,VWS V14.01,2013-04-03 03:48:00,
2013-04-02 23:53:00,36.1,17.3,30.01,West,262,13.0,17.0,46,0.00,,---,0.00,0.00,VWS V14.01,2013-04-03 03:53:00,
2013-04-02 23:58:00,35.9,18.1,30.01,West,267,11.0,17.0,48,0.00,,---,0.00,0.00,VWS V14.01,2013-04-03 03:58:00,